Impacts METAR Board
IDs:

KSLC - Salt Lake City Intl, UT, US

Updated at: 2300 UTC 19 Jan 2019
Potential Impact None Slight Moderate High
Time 19/11Z 19/12Z 19/13Z 19/14Z 19/15Z 19/16Z 19/17Z 19/18Z 19/19Z 19/20Z 19/21Z 19/22Z 19/23Z
Temp31 32 32 32 33 34 34 35 38 39 40 42 42
Dewpt24 26 26 25 24 25 26 27 27 27 29 31 29
Altim30.38 30.37 30.38 30.39 30.42 30.43 30.43 30.44 30.44 30.41 30.36 30.36 30.36
VIS10 10 10 10 10 10 10 10 10 10 10 10 10
CIG150 65 60 55 55 40 50 35 36 36 40 48 46
CoverBKNOVCOVCOVCOVCOVCOVCOVCOVCOVCOVCBKNOVC
FltCatVFRVFRVFRVFRVFRVFRVFRVFRVFRVFRVFRVFRVFR
WX--------------------------
WDir140130130140110120130170130180150160170
WSpd9 9 8 8 7 6 5 6 8 9 10 9 7
WGst-- -- -- -- -- -- -- -- -- -- -- -- --
Raw hourly METARs
KSLC 191054Z 14009KT 10SM SCT070 BKN150 M01/M04 A3038 RMK AO2 SLP296 T10061044
KSLC 191154Z 13009KT 10SM BKN065 OVC110 00/M03 A3037 RMK AO2 SLP285 70001 T00001033 10000 21017 58000
KSLC 191254Z 13008KT 10SM BKN060 OVC110 00/M03 A3038 RMK AO2 SLP296 T00001033
KSLC 191354Z 14008KT 10SM OVC055 00/M04 A3039 RMK AO2 SLP302 T00001039
KSLC 191454Z 11007KT 10SM OVC055 01/M04 A3042 RMK AO2 SLP316 VIRGA T00061044 53014
KSLC 191554Z 12006KT 10SM OVC040 01/M04 A3043 RMK AO2 SLP318 T00111039
KSLC 191654Z 13005KT 10SM OVC050 01/M03 A3043 RMK AO2 SLP319 T00111033
KSLC 191754Z 17006KT 10SM BKN035 OVC041 02/M03 A3044 RMK AO2 SLP320 T00171028 10017 21006 51004
KSLC 191854Z 13008KT 10SM OVC036 03/M03 A3044 RMK AO2 SLP319 T00331028
KSLC 191954Z 18009KT 10SM OVC036 04/M03 A3041 RMK AO2 SLP306 T00391028
KSLC 192054Z 15010KT 10SM BKN040 OVC047 04/M02 A3036 RMK AO2 SLP291 T00441017 58022
KSLC 192154Z 16009KT 10SM BKN048 06/M01 A3036 RMK AO2 SLP279 T00561006
KSLC 192254Z 17007KT 10SM BKN046 OVC080 06/M02 A3036 RMK AO2 SLP288 BINOVC T00561017



Page loaded:  23:04 UTC  |   03:04 PM Pacific  |   04:04 PM Mountain  |   05:04 PM Central  |   06:04 PM Eastern

 

ADVISORIES

FORECASTS

FORECASTS

OBSERVATIONS

USER TOOLS

ABOUT US